sensor_id;sensor_type;location;lat;lon;timestamp;P1;durP1;ratioP1;P2;durP2;ratioP2
56927;SDS011;60850;52.502;13.426;2023-02-23T00:03:52;21.20;;;8.23;;
56927;SDS011;60850;52.502;13.426;2023-02-23T00:06:20;24.25;;;9.07;;
56927;SDS011;60850;52.502;13.426;2023-02-23T00:08:48;18.58;;;8.07;;
56927;SDS011;60850;52.502;13.426;2023-02-23T00:11:18;25.30;;;8.82;;
56927;SDS011;60850;52.502;13.426;2023-02-23T00:13:46;21.13;;;8.65;;
56927;SDS011;60850;52.502;13.426;2023-02-23T00:16:15;20.00;;;7.82;;
56927;SDS011;60850;52.502;13.426;2023-02-23T00:18:44;24.83;;;8.32;;
56927;SDS011;60850;52.502;13.426;2023-02-23T00:21:12;29.70;;;8.93;;
56927;SDS011;60850;52.502;13.426;2023-02-23T00:23:41;21.83;;;8.52;;
56927;SDS011;60850;52.502;13.426;2023-02-23T00:26:09;20.13;;;8.15;;
56927;SDS011;60850;52.502;13.426;2023-02-23T00:28:40;25.13;;;9.27;;
56927;SDS011;60850;52.502;13.426;2023-02-23T00:31:08;30.60;;;9.27;;
56927;SDS011;60850;52.502;13.426;2023-02-23T00:33:37;21.35;;;8.85;;
56927;SDS011;60850;52.502;13.426;2023-02-23T00:36:06;24.88;;;9.18;;
56927;SDS011;60850;52.502;13.426;2023-02-23T00:38:35;26.55;;;9.05;;
56927;SDS011;60850;52.502;13.426;2023-02-23T00:41:04;23.13;;;9.23;;
56927;SDS011;60850;52.502;13.426;2023-02-23T00:43:34;19.40;;;8.68;;
56927;SDS011;60850;52.502;13.426;2023-02-23T00:46:04;26.65;;;9.77;;
56927;SDS011;60850;52.502;13.426;2023-02-23T00:48:32;24.25;;;10.20;;
56927;SDS011;60850;52.502;13.426;2023-02-23T00:51:00;28.08;;;8.98;;
56927;SDS011;60850;52.502;13.426;2023-02-23T00:53:28;26.23;;;9.57;;
56927;SDS011;60850;52.502;13.426;2023-02-23T00:55:55;20.73;;;8.40;;
56927;SDS011;60850;52.502;13.426;2023-02-23T00:58:22;25.52;;;9.65;;
56927;SDS011;60850;52.502;13.426;2023-02-23T01:00:49;23.10;;;8.93;;
56927;SDS011;60850;52.502;13.426;2023-02-23T01:03:18;24.02;;;10.20;;
56927;SDS011;60850;52.502;13.426;2023-02-23T01:05:44;23.80;;;9.75;;
56927;SDS011;60850;52.502;13.426;2023-02-23T01:08:14;23.75;;;9.20;;
56927;SDS011;60850;52.502;13.426;2023-02-23T01:10:42;24.27;;;8.63;;
56927;SDS011;60850;52.502;13.426;2023-02-23T01:13:16;25.45;;;10.10;;
56927;SDS011;60850;52.502;13.426;2023-02-23T01:15:44;23.88;;;9.95;;
56927;SDS011;60850;52.502;13.426;2023-02-23T01:18:12;22.63;;;8.98;;
56927;SDS011;60850;52.502;13.426;2023-02-23T01:20:41;25.40;;;9.55;;
56927;SDS011;60850;52.502;13.426;2023-02-23T01:23:09;26.23;;;10.00;;
56927;SDS011;60850;52.502;13.426;2023-02-23T01:25:38;22.75;;;10.30;;
56927;SDS011;60850;52.502;13.426;2023-02-23T01:28:07;18.25;;;7.95;;
56927;SDS011;60850;52.502;13.426;2023-02-23T01:30:34;37.53;;;10.63;;
56927;SDS011;60850;52.502;13.426;2023-02-23T01:33:02;23.35;;;9.77;;
56927;SDS011;60850;52.502;13.426;2023-02-23T01:35:29;33.60;;;9.45;;
56927;SDS011;60850;52.502;13.426;2023-02-23T01:37:59;23.83;;;9.27;;
56927;SDS011;60850;52.502;13.426;2023-02-23T01:40:26;21.10;;;9.05;;
56927;SDS011;60850;52.502;13.426;2023-02-23T01:42:57;26.33;;;9.25;;
56927;SDS011;60850;52.502;13.426;2023-02-23T01:45:27;22.52;;;8.75;;
56927;SDS011;60850;52.502;13.426;2023-02-23T01:48:00;26.65;;;9.85;;
56927;SDS011;60850;52.502;13.426;2023-02-23T01:50:32;28.20;;;9.20;;
56927;SDS011;60850;52.502;13.426;2023-02-23T01:55:32;22.67;;;8.88;;
56927;SDS011;60850;52.502;13.426;2023-02-23T01:58:02;25.15;;;10.20;;
56927;SDS011;60850;52.502;13.426;2023-02-23T02:00:39;29.48;;;10.13;;
56927;SDS011;60850;52.502;13.426;2023-02-23T02:03:08;24.95;;;9.98;;
56927;SDS011;60850;52.502;13.426;2023-02-23T02:05:39;29.25;;;9.55;;
56927;SDS011;60850;52.502;13.426;2023-02-23T02:08:08;26.80;;;10.38;;
56927;SDS011;60850;52.502;13.426;2023-02-23T02:10:37;23.38;;;8.90;;
56927;SDS011;60850;52.502;13.426;2023-02-23T02:13:11;22.38;;;9.15;;
56927;SDS011;60850;52.502;13.426;2023-02-23T02:15:48;29.47;;;10.50;;
56927;SDS011;60850;52.502;13.426;2023-02-23T02:18:31;23.52;;;9.75;;
56927;SDS011;60850;52.502;13.426;2023-02-23T02:21:13;28.73;;;9.13;;
56927;SDS011;60850;52.502;13.426;2023-02-23T02:24:09;29.25;;;9.57;;
56927;SDS011;60850;52.502;13.426;2023-02-23T02:26:52;29.35;;;10.05;;
56927;SDS011;60850;52.502;13.426;2023-02-23T02:32:45;25.58;;;10.80;;
56927;SDS011;60850;52.502;13.426;2023-02-23T02:35:47;27.48;;;9.93;;
56927;SDS011;60850;52.502;13.426;2023-02-23T02:38:43;31.98;;;10.95;;
56927;SDS011;60850;52.502;13.426;2023-02-23T02:41:19;26.77;;;9.50;;
56927;SDS011;60850;52.502;13.426;2023-02-23T02:44:01;24.23;;;8.35;;
56927;SDS011;60850;52.502;13.426;2023-02-23T02:46:37;26.98;;;9.88;;
56927;SDS011;60850;52.502;13.426;2023-02-23T02:49:08;21.02;;;9.13;;
56927;SDS011;60850;52.502;13.426;2023-02-23T02:51:43;28.92;;;10.98;;
56927;SDS011;60850;52.502;13.426;2023-02-23T02:54:21;23.58;;;9.60;;
56927;SDS011;60850;52.502;13.426;2023-02-23T02:56:52;25.15;;;9.90;;
56927;SDS011;60850;52.502;13.426;2023-02-23T02:59:22;24.05;;;9.10;;
56927;SDS011;60850;52.502;13.426;2023-02-23T03:02:10;25.60;;;9.90;;
56927;SDS011;60850;52.502;13.426;2023-02-23T03:04:59;31.27;;;10.07;;
56927;SDS011;60850;52.502;13.426;2023-02-23T03:07:47;24.42;;;10.57;;
56927;SDS011;60850;52.502;13.426;2023-02-23T03:10:44;24.83;;;9.80;;
56927;SDS011;60850;52.502;13.426;2023-02-23T03:13:37;24.30;;;9.48;;
56927;SDS011;60850;52.502;13.426;2023-02-23T03:16:33;24.38;;;9.68;;
56927;SDS011;60850;52.502;13.426;2023-02-23T03:19:26;27.58;;;10.40;;
56927;SDS011;60850;52.502;13.426;2023-02-23T03:22:16;24.30;;;10.20;;
56927;SDS011;60850;52.502;13.426;2023-02-23T03:25:05;25.60;;;9.88;;
56927;SDS011;60850;52.502;13.426;2023-02-23T03:27:56;30.75;;;9.73;;
56927;SDS011;60850;52.502;13.426;2023-02-23T03:30:52;18.23;;;7.35;;
56927;SDS011;60850;52.502;13.426;2023-02-23T03:33:44;26.75;;;9.57;;
56927;SDS011;60850;52.502;13.426;2023-02-23T03:36:38;20.75;;;9.30;;
56927;SDS011;60850;52.502;13.426;2023-02-23T03:39:30;28.50;;;10.30;;
56927;SDS011;60850;52.502;13.426;2023-02-23T03:42:20;24.08;;;9.68;;
56927;SDS011;60850;52.502;13.426;2023-02-23T03:45:13;27.48;;;9.50;;
56927;SDS011;60850;52.502;13.426;2023-02-23T03:48:04;26.88;;;9.50;;
56927;SDS011;60850;52.502;13.426;2023-02-23T03:50:52;27.48;;;9.43;;
56927;SDS011;60850;52.502;13.426;2023-02-23T03:53:40;31.42;;;10.35;;
56927;SDS011;60850;52.502;13.426;2023-02-23T03:56:30;17.13;;;7.30;;
56927;SDS011;60850;52.502;13.426;2023-02-23T03:59:19;29.88;;;9.63;;
56927;SDS011;60850;52.502;13.426;2023-02-23T04:02:10;24.08;;;10.05;;
56927;SDS011;60850;52.502;13.426;2023-02-23T04:04:58;26.98;;;10.18;;
56927;SDS011;60850;52.502;13.426;2023-02-23T04:07:48;27.73;;;10.60;;
56927;SDS011;60850;52.502;13.426;2023-02-23T04:10:35;27.98;;;10.38;;
56927;SDS011;60850;52.502;13.426;2023-02-23T04:13:27;28.20;;;9.80;;
56927;SDS011;60850;52.502;13.426;2023-02-23T04:15:59;33.90;;;12.02;;
56927;SDS011;60850;52.502;13.426;2023-02-23T04:18:29;32.75;;;11.68;;
56927;SDS011;60850;52.502;13.426;2023-02-23T04:20:59;30.23;;;12.05;;
56927;SDS011;60850;52.502;13.426;2023-02-23T04:23:26;23.25;;;9.70;;
56927;SDS011;60850;52.502;13.426;2023-02-23T04:25:56;24.27;;;9.55;;
56927;SDS011;60850;52.502;13.426;2023-02-23T04:28:23;27.80;;;9.77;;
56927;SDS011;60850;52.502;13.426;2023-02-23T04:30:51;28.50;;;10.98;;
56927;SDS011;60850;52.502;13.426;2023-02-23T04:33:18;32.22;;;10.15;;
56927;SDS011;60850;52.502;13.426;2023-02-23T04:35:47;25.70;;;10.68;;
56927;SDS011;60850;52.502;13.426;2023-02-23T04:38:14;21.70;;;9.48;;
56927;SDS011;60850;52.502;13.426;2023-02-23T04:40:44;29.15;;;10.55;;
56927;SDS011;60850;52.502;13.426;2023-02-23T04:43:11;29.88;;;11.20;;
56927;SDS011;60850;52.502;13.426;2023-02-23T04:45:38;24.90;;;10.23;;
56927;SDS011;60850;52.502;13.426;2023-02-23T04:48:05;35.17;;;10.88;;
56927;SDS011;60850;52.502;13.426;2023-02-23T04:50:32;22.95;;;9.48;;
56927;SDS011;60850;52.502;13.426;2023-02-23T04:53:01;23.67;;;9.23;;
56927;SDS011;60850;52.502;13.426;2023-02-23T04:55:28;36.38;;;11.07;;
56927;SDS011;60850;52.502;13.426;2023-02-23T04:57:55;21.08;;;8.93;;
56927;SDS011;60850;52.502;13.426;2023-02-23T05:00:23;24.55;;;9.77;;
56927;SDS011;60850;52.502;13.426;2023-02-23T05:02:50;26.80;;;10.15;;
56927;SDS011;60850;52.502;13.426;2023-02-23T05:05:18;26.70;;;10.80;;
56927;SDS011;60850;52.502;13.426;2023-02-23T05:07:45;28.80;;;12.15;;
56927;SDS011;60850;52.502;13.426;2023-02-23T05:10:14;28.20;;;10.70;;
56927;SDS011;60850;52.502;13.426;2023-02-23T05:12:41;26.98;;;10.95;;
56927;SDS011;60850;52.502;13.426;2023-02-23T05:15:10;30.02;;;10.32;;
56927;SDS011;60850;52.502;13.426;2023-02-23T05:17:37;25.40;;;10.40;;
56927;SDS011;60850;52.502;13.426;2023-02-23T05:20:07;29.80;;;10.30;;
56927;SDS011;60850;52.502;13.426;2023-02-23T05:22:35;28.00;;;10.73;;
56927;SDS011;60850;52.502;13.426;2023-02-23T05:25:02;24.15;;;10.35;;
56927;SDS011;60850;52.502;13.426;2023-02-23T05:27:31;29.33;;;10.85;;
56927;SDS011;60850;52.502;13.426;2023-02-23T05:29:58;26.77;;;9.85;;
56927;SDS011;60850;52.502;13.426;2023-02-23T05:32:26;25.00;;;10.18;;
56927;SDS011;60850;52.502;13.426;2023-02-23T05:34:54;24.45;;;9.98;;
56927;SDS011;60850;52.502;13.426;2023-02-23T05:37:20;24.52;;;10.45;;
56927;SDS011;60850;52.502;13.426;2023-02-23T05:39:48;24.30;;;10.02;;
56927;SDS011;60850;52.502;13.426;2023-02-23T05:42:14;30.42;;;11.60;;
56927;SDS011;60850;52.502;13.426;2023-02-23T05:44:43;33.65;;;11.52;;
56927;SDS011;60850;52.502;13.426;2023-02-23T05:47:10;30.70;;;9.77;;
56927;SDS011;60850;52.502;13.426;2023-02-23T05:49:37;33.70;;;10.85;;
56927;SDS011;60850;52.502;13.426;2023-02-23T05:52:04;35.63;;;11.85;;
56927;SDS011;60850;52.502;13.426;2023-02-23T05:54:31;27.15;;;10.52;;
56927;SDS011;60850;52.502;13.426;2023-02-23T05:56:58;28.48;;;10.63;;
56927;SDS011;60850;52.502;13.426;2023-02-23T05:59:25;24.08;;;10.10;;
56927;SDS011;60850;52.502;13.426;2023-02-23T06:01:53;22.33;;;9.95;;
56927;SDS011;60850;52.502;13.426;2023-02-23T06:04:20;25.80;;;10.63;;
56927;SDS011;60850;52.502;13.426;2023-02-23T06:06:48;29.63;;;10.23;;
56927;SDS011;60850;52.502;13.426;2023-02-23T06:09:15;26.70;;;10.93;;
56927;SDS011;60850;52.502;13.426;2023-02-23T06:11:42;27.50;;;10.80;;
56927;SDS011;60850;52.502;13.426;2023-02-23T06:14:09;28.00;;;10.63;;
56927;SDS011;60850;52.502;13.426;2023-02-23T06:16:36;26.98;;;10.68;;
56927;SDS011;60850;52.502;13.426;2023-02-23T06:19:05;29.25;;;10.27;;
56927;SDS011;60850;52.502;13.426;2023-02-23T06:21:32;30.65;;;10.27;;
56927;SDS011;60850;52.502;13.426;2023-02-23T06:23:59;29.70;;;11.40;;
56927;SDS011;60850;52.502;13.426;2023-02-23T06:26:26;27.48;;;10.88;;
56927;SDS011;60850;52.502;13.426;2023-02-23T06:28:54;28.65;;;12.20;;
56927;SDS011;60850;52.502;13.426;2023-02-23T06:31:21;31.27;;;12.05;;
56927;SDS011;60850;52.502;13.426;2023-02-23T06:33:48;32.17;;;11.35;;
56927;SDS011;60850;52.502;13.426;2023-02-23T06:36:16;30.20;;;11.77;;
56927;SDS011;60850;52.502;13.426;2023-02-23T06:38:43;28.98;;;10.70;;
56927;SDS011;60850;52.502;13.426;2023-02-23T06:41:11;27.42;;;10.35;;
56927;SDS011;60850;52.502;13.426;2023-02-23T06:43:38;29.90;;;11.68;;
56927;SDS011;60850;52.502;13.426;2023-02-23T06:46:05;25.63;;;11.00;;
56927;SDS011;60850;52.502;13.426;2023-02-23T06:48:32;28.25;;;11.43;;
56927;SDS011;60850;52.502;13.426;2023-02-23T06:51:00;34.50;;;10.63;;
56927;SDS011;60850;52.502;13.426;2023-02-23T06:53:29;24.80;;;10.88;;
56927;SDS011;60850;52.502;13.426;2023-02-23T06:55:55;26.70;;;10.93;;
56927;SDS011;60850;52.502;13.426;2023-02-23T06:58:23;30.58;;;11.35;;
56927;SDS011;60850;52.502;13.426;2023-02-23T07:00:50;29.45;;;10.65;;
56927;SDS011;60850;52.502;13.426;2023-02-23T07:03:18;25.85;;;10.35;;
56927;SDS011;60850;52.502;13.426;2023-02-23T07:05:45;32.45;;;11.85;;
56927;SDS011;60850;52.502;13.426;2023-02-23T07:08:12;35.80;;;11.82;;
56927;SDS011;60850;52.502;13.426;2023-02-23T07:10:40;26.23;;;11.65;;
56927;SDS011;60850;52.502;13.426;2023-02-23T07:13:07;30.25;;;11.32;;
56927;SDS011;60850;52.502;13.426;2023-02-23T07:15:35;30.13;;;10.85;;
56927;SDS011;60850;52.502;13.426;2023-02-23T07:18:02;23.27;;;10.43;;
56927;SDS011;60850;52.502;13.426;2023-02-23T07:20:29;26.42;;;10.90;;
56927;SDS011;60850;52.502;13.426;2023-02-23T07:22:57;26.17;;;10.90;;
56927;SDS011;60850;52.502;13.426;2023-02-23T07:25:24;28.02;;;10.77;;
56927;SDS011;60850;52.502;13.426;2023-02-23T07:27:53;26.98;;;10.93;;
56927;SDS011;60850;52.502;13.426;2023-02-23T07:30:20;31.30;;;10.75;;
56927;SDS011;60850;52.502;13.426;2023-02-23T07:32:49;29.55;;;10.95;;
56927;SDS011;60850;52.502;13.426;2023-02-23T07:35:16;32.08;;;9.95;;
56927;SDS011;60850;52.502;13.426;2023-02-23T07:37:43;28.38;;;11.45;;
56927;SDS011;60850;52.502;13.426;2023-02-23T07:40:10;31.65;;;11.00;;
56927;SDS011;60850;52.502;13.426;2023-02-23T07:42:38;28.90;;;10.48;;
56927;SDS011;60850;52.502;13.426;2023-02-23T07:45:07;23.42;;;10.50;;
56927;SDS011;60850;52.502;13.426;2023-02-23T07:47:35;23.58;;;9.60;;
56927;SDS011;60850;52.502;13.426;2023-02-23T07:50:04;25.95;;;10.48;;
56927;SDS011;60850;52.502;13.426;2023-02-23T07:52:34;30.40;;;10.88;;
56927;SDS011;60850;52.502;13.426;2023-02-23T07:55:02;30.02;;;11.48;;
56927;SDS011;60850;52.502;13.426;2023-02-23T07:57:30;30.48;;;12.00;;
56927;SDS011;60850;52.502;13.426;2023-02-23T07:59:57;30.38;;;12.05;;
56927;SDS011;60850;52.502;13.426;2023-02-23T08:02:26;24.85;;;11.75;;
56927;SDS011;60850;52.502;13.426;2023-02-23T08:04:54;29.58;;;12.40;;
56927;SDS011;60850;52.502;13.426;2023-02-23T08:07:22;27.13;;;11.82;;
56927;SDS011;60850;52.502;13.426;2023-02-23T08:09:50;28.35;;;12.32;;
56927;SDS011;60850;52.502;13.426;2023-02-23T08:12:18;33.50;;;12.77;;
56927;SDS011;60850;52.502;13.426;2023-02-23T08:14:45;31.58;;;12.38;;
56927;SDS011;60850;52.502;13.426;2023-02-23T08:17:12;30.58;;;11.77;;
56927;SDS011;60850;52.502;13.426;2023-02-23T08:19:40;25.00;;;11.70;;
56927;SDS011;60850;52.502;13.426;2023-02-23T08:22:07;31.55;;;12.20;;
56927;SDS011;60850;52.502;13.426;2023-02-23T08:24:34;27.33;;;11.63;;
56927;SDS011;60850;52.502;13.426;2023-02-23T08:27:02;27.77;;;11.90;;
56927;SDS011;60850;52.502;13.426;2023-02-23T08:29:29;30.13;;;11.73;;
56927;SDS011;60850;52.502;13.426;2023-02-23T08:31:57;34.33;;;12.48;;
56927;SDS011;60850;52.502;13.426;2023-02-23T08:34:27;32.78;;;12.48;;
56927;SDS011;60850;52.502;13.426;2023-02-23T08:36:55;25.95;;;12.88;;
56927;SDS011;60850;52.502;13.426;2023-02-23T08:39:22;26.70;;;11.35;;
56927;SDS011;60850;52.502;13.426;2023-02-23T08:41:50;27.83;;;11.88;;
56927;SDS011;60850;52.502;13.426;2023-02-23T08:44:19;30.02;;;11.63;;
56927;SDS011;60850;52.502;13.426;2023-02-23T08:46:46;24.45;;;11.32;;
56927;SDS011;60850;52.502;13.426;2023-02-23T08:49:13;25.08;;;11.23;;
56927;SDS011;60850;52.502;13.426;2023-02-23T08:51:41;28.08;;;13.05;;
56927;SDS011;60850;52.502;13.426;2023-02-23T08:54:09;31.52;;;12.27;;
56927;SDS011;60850;52.502;13.426;2023-02-23T08:56:39;23.90;;;11.95;;
56927;SDS011;60850;52.502;13.426;2023-02-23T08:59:06;31.58;;;13.95;;
56927;SDS011;60850;52.502;13.426;2023-02-23T09:01:33;25.40;;;12.25;;
56927;SDS011;60850;52.502;13.426;2023-02-23T09:04:01;31.65;;;12.32;;
56927;SDS011;60850;52.502;13.426;2023-02-23T09:06:29;28.48;;;13.52;;
56927;SDS011;60850;52.502;13.426;2023-02-23T09:08:57;28.45;;;12.38;;
56927;SDS011;60850;52.502;13.426;2023-02-23T09:11:25;28.45;;;12.88;;
56927;SDS011;60850;52.502;13.426;2023-02-23T09:13:52;31.45;;;12.63;;
56927;SDS011;60850;52.502;13.426;2023-02-23T09:16:20;26.40;;;12.38;;
56927;SDS011;60850;52.502;13.426;2023-02-23T09:18:47;27.95;;;12.15;;
56927;SDS011;60850;52.502;13.426;2023-02-23T09:21:15;28.33;;;12.98;;
56927;SDS011;60850;52.502;13.426;2023-02-23T09:23:45;28.48;;;13.55;;
56927;SDS011;60850;52.502;13.426;2023-02-23T09:26:15;32.20;;;13.30;;
56927;SDS011;60850;52.502;13.426;2023-02-23T09:28:44;31.70;;;13.18;;
56927;SDS011;60850;52.502;13.426;2023-02-23T09:31:12;28.45;;;13.40;;
56927;SDS011;60850;52.502;13.426;2023-02-23T09:33:40;31.35;;;13.00;;
56927;SDS011;60850;52.502;13.426;2023-02-23T09:36:09;33.55;;;13.80;;
56927;SDS011;60850;52.502;13.426;2023-02-23T09:38:43;25.92;;;12.25;;
56927;SDS011;60850;52.502;13.426;2023-02-23T09:41:21;25.95;;;12.68;;
56927;SDS011;60850;52.502;13.426;2023-02-23T09:44:12;31.13;;;12.68;;
56927;SDS011;60850;52.502;13.426;2023-02-23T09:46:47;26.92;;;13.55;;
56927;SDS011;60850;52.502;13.426;2023-02-23T09:49:27;28.60;;;12.15;;
56927;SDS011;60850;52.502;13.426;2023-02-23T09:51:57;26.00;;;12.35;;
56927;SDS011;60850;52.502;13.426;2023-02-23T09:54:27;27.98;;;12.55;;
56927;SDS011;60850;52.502;13.426;2023-02-23T09:56:58;29.98;;;12.23;;
56927;SDS011;60850;52.502;13.426;2023-02-23T09:59:29;29.27;;;12.27;;
56927;SDS011;60850;52.502;13.426;2023-02-23T10:01:58;26.15;;;12.55;;
56927;SDS011;60850;52.502;13.426;2023-02-23T10:09:49;26.13;;;11.40;;
56927;SDS011;60850;52.502;13.426;2023-02-23T10:12:29;28.73;;;11.60;;
56927;SDS011;60850;52.502;13.426;2023-02-23T10:15:11;26.67;;;12.88;;
56927;SDS011;60850;52.502;13.426;2023-02-23T10:17:47;26.75;;;12.43;;
56927;SDS011;60850;52.502;13.426;2023-02-23T10:20:22;26.77;;;12.77;;
56927;SDS011;60850;52.502;13.426;2023-02-23T10:22:56;26.50;;;12.27;;
56927;SDS011;60850;52.502;13.426;2023-02-23T10:25:30;18.75;;;11.52;;
56927;SDS011;60850;52.502;13.426;2023-02-23T10:28:02;21.42;;;12.02;;
56927;SDS011;60850;52.502;13.426;2023-02-23T10:30:31;24.40;;;11.27;;
56927;SDS011;60850;52.502;13.426;2023-02-23T10:33:00;24.80;;;12.05;;
56927;SDS011;60850;52.502;13.426;2023-02-23T10:35:30;32.42;;;12.82;;
56927;SDS011;60850;52.502;13.426;2023-02-23T10:37:59;25.17;;;12.98;;
56927;SDS011;60850;52.502;13.426;2023-02-23T10:40:28;24.17;;;12.18;;
56927;SDS011;60850;52.502;13.426;2023-02-23T10:42:58;27.85;;;12.55;;
56927;SDS011;60850;52.502;13.426;2023-02-23T10:45:27;24.23;;;12.52;;
56927;SDS011;60850;52.502;13.426;2023-02-23T10:47:57;25.92;;;12.00;;
56927;SDS011;60850;52.502;13.426;2023-02-23T10:50:27;24.83;;;12.68;;
56927;SDS011;60850;52.502;13.426;2023-02-23T10:52:57;27.08;;;12.35;;
56927;SDS011;60850;52.502;13.426;2023-02-23T10:55:26;23.55;;;12.68;;
56927;SDS011;60850;52.502;13.426;2023-02-23T10:58:01;26.02;;;12.93;;
56927;SDS011;60850;52.502;13.426;2023-02-23T11:00:34;30.80;;;13.77;;
56927;SDS011;60850;52.502;13.426;2023-02-23T11:03:15;28.40;;;13.15;;
56927;SDS011;60850;52.502;13.426;2023-02-23T11:05:44;29.58;;;13.90;;
56927;SDS011;60850;52.502;13.426;2023-02-23T11:08:19;29.23;;;13.45;;
56927;SDS011;60850;52.502;13.426;2023-02-23T11:10:54;25.17;;;13.17;;
56927;SDS011;60850;52.502;13.426;2023-02-23T11:13:27;24.95;;;13.25;;
56927;SDS011;60850;52.502;13.426;2023-02-23T11:15:59;28.00;;;13.90;;
56927;SDS011;60850;52.502;13.426;2023-02-23T11:18:30;31.63;;;14.10;;
56927;SDS011;60850;52.502;13.426;2023-02-23T11:20:58;26.00;;;12.73;;
56927;SDS011;60850;52.502;13.426;2023-02-23T11:23:25;27.73;;;13.50;;
56927;SDS011;60850;52.502;13.426;2023-02-23T11:25:56;32.10;;;13.55;;
56927;SDS011;60850;52.502;13.426;2023-02-23T11:28:26;23.90;;;12.85;;
56927;SDS011;60850;52.502;13.426;2023-02-23T11:30:56;31.73;;;13.55;;
56927;SDS011;60850;52.502;13.426;2023-02-23T11:33:31;29.48;;;13.18;;
56927;SDS011;60850;52.502;13.426;2023-02-23T11:36:15;35.00;;;14.95;;
56927;SDS011;60850;52.502;13.426;2023-02-23T11:38:55;26.33;;;13.45;;
56927;SDS011;60850;52.502;13.426;2023-02-23T11:41:28;31.73;;;13.48;;
56927;SDS011;60850;52.502;13.426;2023-02-23T11:43:56;30.42;;;14.07;;
56927;SDS011;60850;52.502;13.426;2023-02-23T11:46:26;32.28;;;13.85;;
56927;SDS011;60850;52.502;13.426;2023-02-23T11:48:57;28.30;;;14.55;;
56927;SDS011;60850;52.502;13.426;2023-02-23T11:51:25;30.02;;;14.80;;
56927;SDS011;60850;52.502;13.426;2023-02-23T11:53:55;29.27;;;14.35;;
56927;SDS011;60850;52.502;13.426;2023-02-23T11:56:23;30.02;;;13.95;;
56927;SDS011;60850;52.502;13.426;2023-02-23T11:58:52;31.80;;;14.20;;
56927;SDS011;60850;52.502;13.426;2023-02-23T12:01:22;29.27;;;14.65;;
56927;SDS011;60850;52.502;13.426;2023-02-23T12:04:03;26.73;;;13.32;;
56927;SDS011;60850;52.502;13.426;2023-02-23T12:06:30;29.77;;;14.80;;
56927;SDS011;60850;52.502;13.426;2023-02-23T12:09:03;37.30;;;15.07;;
56927;SDS011;60850;52.502;13.426;2023-02-23T12:11:39;29.58;;;15.00;;
56927;SDS011;60850;52.502;13.426;2023-02-23T12:14:14;29.00;;;14.02;;
56927;SDS011;60850;52.502;13.426;2023-02-23T12:16:52;31.25;;;14.35;;
56927;SDS011;60850;52.502;13.426;2023-02-23T12:19:25;29.10;;;13.77;;
56927;SDS011;60850;52.502;13.426;2023-02-23T12:21:59;34.38;;;14.30;;
56927;SDS011;60850;52.502;13.426;2023-02-23T12:24:36;34.42;;;14.55;;
56927;SDS011;60850;52.502;13.426;2023-02-23T12:27:09;28.20;;;14.27;;
56927;SDS011;60850;52.502;13.426;2023-02-23T12:29:41;27.95;;;13.63;;
56927;SDS011;60850;52.502;13.426;2023-02-23T12:32:17;29.33;;;14.13;;
56927;SDS011;60850;52.502;13.426;2023-02-23T12:34:50;26.50;;;12.95;;
56927;SDS011;60850;52.502;13.426;2023-02-23T12:37:33;29.13;;;14.20;;
56927;SDS011;60850;52.502;13.426;2023-02-23T12:40:09;27.40;;;13.98;;
56927;SDS011;60850;52.502;13.426;2023-02-23T12:42:42;29.17;;;13.55;;
56927;SDS011;60850;52.502;13.426;2023-02-23T12:45:15;26.95;;;14.35;;
56927;SDS011;60850;52.502;13.426;2023-02-23T12:47:48;28.33;;;14.30;;
56927;SDS011;60850;52.502;13.426;2023-02-23T12:50:23;30.40;;;12.88;;
56927;SDS011;60850;52.502;13.426;2023-02-23T12:52:55;27.65;;;14.32;;
56927;SDS011;60850;52.502;13.426;2023-02-23T12:55:27;26.25;;;13.75;;
56927;SDS011;60850;52.502;13.426;2023-02-23T12:58:04;30.58;;;13.77;;
56927;SDS011;60850;52.502;13.426;2023-02-23T13:00:50;28.02;;;14.35;;
56927;SDS011;60850;52.502;13.426;2023-02-23T13:03:26;30.98;;;14.30;;
56927;SDS011;60850;52.502;13.426;2023-02-23T13:06:08;27.40;;;14.80;;
56927;SDS011;60850;52.502;13.426;2023-02-23T13:08:50;28.52;;;13.75;;
56927;SDS011;60850;52.502;13.426;2023-02-23T13:11:26;28.60;;;14.32;;
56927;SDS011;60850;52.502;13.426;2023-02-23T13:14:15;28.05;;;14.50;;
56927;SDS011;60850;52.502;13.426;2023-02-23T13:16:47;28.85;;;14.07;;
56927;SDS011;60850;52.502;13.426;2023-02-23T13:19:19;27.50;;;14.15;;
56927;SDS011;60850;52.502;13.426;2023-02-23T13:21:53;29.00;;;15.18;;
56927;SDS011;60850;52.502;13.426;2023-02-23T13:24:28;32.42;;;15.05;;
56927;SDS011;60850;52.502;13.426;2023-02-23T13:27:02;28.50;;;14.75;;
56927;SDS011;60850;52.502;13.426;2023-02-23T13:29:35;29.83;;;14.40;;
56927;SDS011;60850;52.502;13.426;2023-02-23T13:32:07;30.38;;;14.77;;
56927;SDS011;60850;52.502;13.426;2023-02-23T13:34:38;27.90;;;14.15;;
56927;SDS011;60850;52.502;13.426;2023-02-23T13:37:11;29.08;;;14.60;;
56927;SDS011;60850;52.502;13.426;2023-02-23T13:39:49;29.73;;;15.48;;
56927;SDS011;60850;52.502;13.426;2023-02-23T13:42:25;32.75;;;16.98;;
56927;SDS011;60850;52.502;13.426;2023-02-23T13:47:55;35.17;;;16.23;;
56927;SDS011;60850;52.502;13.426;2023-02-23T13:50:28;29.10;;;14.10;;
56927;SDS011;60850;52.502;13.426;2023-02-23T13:53:05;31.92;;;15.38;;
56927;SDS011;60850;52.502;13.426;2023-02-23T13:55:50;31.80;;;14.98;;
56927;SDS011;60850;52.502;13.426;2023-02-23T13:58:21;30.50;;;14.85;;
56927;SDS011;60850;52.502;13.426;2023-02-23T14:00:52;32.78;;;14.80;;
56927;SDS011;60850;52.502;13.426;2023-02-23T14:03:38;28.10;;;14.35;;
56927;SDS011;60850;52.502;13.426;2023-02-23T14:06:10;28.85;;;14.45;;
56927;SDS011;60850;52.502;13.426;2023-02-23T14:08:41;28.60;;;13.80;;
56927;SDS011;60850;52.502;13.426;2023-02-23T14:11:09;25.27;;;13.23;;
56927;SDS011;60850;52.502;13.426;2023-02-23T14:13:57;29.50;;;14.70;;
56927;SDS011;60850;52.502;13.426;2023-02-23T14:16:27;28.73;;;14.65;;
56927;SDS011;60850;52.502;13.426;2023-02-23T14:18:56;31.48;;;14.75;;
56927;SDS011;60850;52.502;13.426;2023-02-23T14:21:33;28.17;;;14.80;;
56927;SDS011;60850;52.502;13.426;2023-02-23T14:24:15;29.60;;;16.13;;
56927;SDS011;60850;52.502;13.426;2023-02-23T14:26:44;28.80;;;14.68;;
56927;SDS011;60850;52.502;13.426;2023-02-23T14:29:28;31.10;;;14.85;;
56927;SDS011;60850;52.502;13.426;2023-02-23T14:32:01;31.45;;;15.93;;
56927;SDS011;60850;52.502;13.426;2023-02-23T14:34:50;29.45;;;15.50;;
56927;SDS011;60850;52.502;13.426;2023-02-23T14:37:25;31.17;;;16.00;;
56927;SDS011;60850;52.502;13.426;2023-02-23T14:40:00;32.30;;;16.20;;
56927;SDS011;60850;52.502;13.426;2023-02-23T14:42:35;33.75;;;17.15;;
56927;SDS011;60850;52.502;13.426;2023-02-23T14:45:11;33.60;;;17.50;;
56927;SDS011;60850;52.502;13.426;2023-02-23T14:47:45;33.40;;;16.25;;
56927;SDS011;60850;52.502;13.426;2023-02-23T14:50:16;33.10;;;17.55;;
56927;SDS011;60850;52.502;13.426;2023-02-23T14:52:49;35.72;;;17.30;;
56927;SDS011;60850;52.502;13.426;2023-02-23T14:55:21;32.58;;;17.27;;
56927;SDS011;60850;52.502;13.426;2023-02-23T14:57:50;42.65;;;18.48;;